Terminal Aerodrome Forecast
Issued by NWS Kansas City/Pleasant Hill, MO

Home | Current Version | Previous Version | Text Only | Print | Product List | Glossary On
Versions: 1 2 3 4 5 6 7 8 9 10 11 12
507
FTUS43 KEAX 170520
TAFMCI
TAF
KMCI 170520Z 1706/1806 19008KT P6SM SKC
     FM171700 19012G20KT P6SM SKC
     FM172300 19010KT P6SM SCT200=

USA.gov is the U.S. government's official web portal to all federal, state and local government web resources and services.